Time;durP1;ratioP1;P1;durP2;ratioP2;P2;SDS_P1;SDS_P2;PMS_P1;PMS_P2;Temp;Humidity;BMP_temperature;BMP_pressure;BME280_temperature;BME280_humidity;BME280_pressure;Samples;Min_cycle;Max_cycle;Signal;HPM_P1;HPM_P2
2023/09/01 00:01:16;;;;;;;7.20;2.13;;;14.70;99.90;;;;;;5013355;28;20433;-45
2023/09/01 00:03:58;;;;;;;3.37;2.17;;;14.70;99.90;;;;;;5014449;28;20494;-45
2023/09/01 00:06:24;;;;;;;3.83;2.27;;;14.70;99.90;;;;;;5013635;28;20415;-43
2023/09/01 00:08:51;;;;;;;1.90;1.50;;;14.70;99.90;;;;;;5013839;28;20437;-44
2023/09/01 00:11:19;;;;;;;8.03;2.00;;;14.80;99.90;;;;;;5015219;28;20487;-44
2023/09/01 00:13:47;;;;;;;3.07;2.10;;;14.60;99.90;;;;;;5015538;28;20483;-43
2023/09/01 00:16:15;;;;;;;2.27;1.73;;;14.70;99.90;;;;;;5015852;28;21089;-43
2023/09/01 00:18:42;;;;;;;4.10;2.30;;;14.60;99.90;;;;;;5014642;28;20432;-45
2023/09/01 00:21:08;;;;;;;3.20;1.80;;;14.60;99.90;;;;;;5016192;28;20442;-43
2023/09/01 00:23:35;;;;;;;3.07;1.80;;;14.60;99.90;;;;;;5015847;28;20432;-44
2023/09/01 00:26:02;;;;;;;3.00;2.23;;;14.50;99.90;;;;;;5015231;28;20924;-44
2023/09/01 00:28:28;;;;;;;3.30;2.20;;;14.60;99.90;;;;;;5014829;28;20439;-44
2023/09/01 00:30:57;;;;;;;2.03;1.83;;;14.60;99.90;;;;;;5015307;28;20476;-43
2023/09/01 00:33:27;;;;;;;3.20;2.13;;;14.60;99.90;;;;;;5012342;28;20437;-44
2023/09/01 00:35:55;;;;;;;4.60;2.20;;;14.60;99.90;;;;;;5014894;28;20429;-44
2023/09/01 00:38:24;;;;;;;5.07;2.47;;;14.60;99.90;;;;;;5013015;28;20427;-45
2023/09/01 00:40:51;;;;;;;3.43;2.57;;;14.50;99.90;;;;;;5014668;28;20778;-45
2023/09/01 00:43:18;;;;;;;2.67;2.20;;;14.50;99.90;;;;;;5012133;28;20422;-45
2023/09/01 00:45:44;;;;;;;4.30;2.50;;;14.50;99.90;;;;;;5011712;28;20430;-45
2023/09/01 00:48:12;;;;;;;4.20;2.40;;;14.50;99.90;;;;;;5012499;28;20468;-45
2023/09/01 00:50:41;;;;;;;3.50;2.33;;;14.50;99.90;;;;;;5012083;28;20477;-45
2023/09/01 00:53:08;;;;;;;2.93;2.47;;;14.50;99.90;;;;;;5010971;28;20835;-45
2023/09/01 00:55:36;;;;;;;2.77;1.97;;;14.50;99.90;;;;;;5012125;28;20822;-44
2023/09/01 00:58:03;;;;;;;4.30;2.60;;;14.40;99.90;;;;;;5012028;28;20428;-44
2023/09/01 01:00:32;;;;;;;3.10;2.00;;;14.40;99.90;;;;;;5012266;28;20491;-44
2023/09/01 01:03:00;;;;;;;3.27;2.10;;;14.40;99.90;;;;;;5011248;28;20563;-43
2023/09/01 01:05:34;;;;;;;2.83;2.37;;;14.40;99.90;;;;;;5011064;28;20471;-44
2023/09/01 01:08:09;;;;;;;4.47;3.70;;;14.40;99.90;;;;;;5014703;28;20435;-44
2023/09/01 01:10:40;;;;;;;5.27;3.13;;;14.50;99.90;;;;;;5014959;28;20551;-43
2023/09/01 01:13:11;;;;;;;3.17;2.40;;;14.30;99.90;;;;;;5015862;28;20443;-45
2023/09/01 01:15:39;;;;;;;2.73;2.10;;;14.30;99.90;;;;;;5019615;28;20430;-43
2023/09/01 01:18:12;;;;;;;3.70;1.90;;;14.30;99.90;;;;;;5017560;28;20432;-43
2023/09/01 01:20:44;;;;;;;3.70;2.07;;;14.30;99.90;;;;;;5019812;28;20492;-44
2023/09/01 01:23:14;;;;;;;3.63;2.77;;;14.30;99.90;;;;;;5021350;28;20977;-44
2023/09/01 01:25:46;;;;;;;2.30;2.10;;;14.30;99.90;;;;;;5022027;28;20418;-44
2023/09/01 01:28:13;;;;;;;4.13;2.90;;;14.30;99.90;;;;;;5015747;28;20411;-44
2023/09/01 01:30:40;;;;;;;3.47;2.20;;;14.30;99.90;;;;;;5014587;28;20461;-44
2023/09/01 01:33:15;;;;;;;8.97;2.93;;;14.30;99.90;;;;;;5014213;28;20448;-43
2023/09/01 01:35:49;;;;;;;6.37;2.20;;;14.30;99.90;;;;;;5015814;28;20920;-45
2023/09/01 01:38:22;;;;;;;5.37;2.40;;;14.30;99.90;;;;;;5015070;28;20439;-44
2023/09/01 01:40:51;;;;;;;4.73;2.27;;;14.20;99.90;;;;;;5015458;28;20442;-45
2023/09/01 01:43:22;;;;;;;6.00;2.70;;;14.20;99.90;;;;;;5014032;28;20779;-45
2023/09/01 01:45:49;;;;;;;3.90;2.83;;;14.20;99.90;;;;;;5022501;28;20421;-44
2023/09/01 01:48:16;;;;;;;3.20;2.17;;;14.10;99.90;;;;;;5020626;28;20548;-44
2023/09/01 01:50:43;;;;;;;9.10;3.37;;;14.10;99.90;;;;;;5021971;28;20447;-42
2023/09/01 01:53:09;;;;;;;4.53;3.03;;;14.10;99.90;;;;;;5016683;28;20767;-45
2023/09/01 01:55:37;;;;;;;2.97;2.17;;;13.90;99.90;;;;;;5013837;28;20503;-43
2023/09/01 01:58:05;;;;;;;6.83;2.97;;;14.10;99.90;;;;;;5013781;28;20445;-44
2023/09/01 02:00:33;;;;;;;6.67;2.87;;;14.10;99.90;;;;;;5013962;28;20451;-43
2023/09/01 02:02:59;;;;;;;4.13;3.03;;;14.10;99.90;;;;;;5015251;28;20441;-44
2023/09/01 02:05:26;;;;;;;4.47;2.40;;;14.10;99.90;;;;;;5013704;28;20451;-44
2023/09/01 02:07:53;;;;;;;4.40;3.23;;;14.30;99.90;;;;;;5014815;28;20474;-44
2023/09/01 02:10:20;;;;;;;3.60;2.30;;;14.10;99.90;;;;;;5014819;28;20419;-44
2023/09/01 02:12:48;;;;;;;4.40;2.80;;;14.10;99.90;;;;;;5014837;28;20558;-43
2023/09/01 02:15:15;;;;;;;3.70;2.63;;;14.10;99.90;;;;;;5015171;28;20536;-45
2023/09/01 02:17:41;;;;;;;4.33;2.33;;;13.90;99.90;;;;;;5013689;28;20830;-44
2023/09/01 02:20:16;;;;;;;3.60;2.70;;;14.10;99.90;;;;;;5014151;28;20444;-44
2023/09/01 02:22:43;;;;;;;3.33;2.67;;;14.10;99.90;;;;;;5014992;28;20446;-44
2023/09/01 02:25:10;;;;;;;5.43;2.97;;;14.10;99.90;;;;;;5013428;28;20468;-43
2023/09/01 02:27:39;;;;;;;2.80;2.53;;;14.00;99.90;;;;;;5013470;28;20820;-44
2023/09/01 02:30:09;;;;;;;5.30;3.17;;;14.00;99.90;;;;;;5014752;28;20436;-44
2023/09/01 02:32:35;;;;;;;3.70;2.83;;;14.00;99.90;;;;;;5012866;28;20459;-46
2023/09/01 02:35:05;;;;;;;11.17;3.43;;;14.00;99.90;;;;;;5013262;28;20450;-43
2023/09/01 02:37:32;;;;;;;4.40;3.10;;;14.00;99.90;;;;;;5013226;28;20461;-43
2023/09/01 02:39:59;;;;;;;9.40;3.30;;;14.00;99.90;;;;;;5014232;28;20831;-44
2023/09/01 02:42:25;;;;;;;4.20;3.80;;;14.00;99.90;;;;;;5014462;28;20407;-43
2023/09/01 02:44:53;;;;;;;5.13;3.20;;;13.50;99.90;;;;;;5014346;28;20460;-45
2023/09/01 02:47:21;;;;;;;3.70;3.30;;;13.80;99.90;;;;;;5014191;28;20892;-44
2023/09/01 02:49:47;;;;;;;7.33;3.30;;;13.90;99.90;;;;;;5014255;28;20806;-43
2023/09/01 02:52:15;;;;;;;4.67;3.20;;;13.90;99.90;;;;;;5012693;28;20836;-43
2023/09/01 02:54:41;;;;;;;6.00;4.20;;;13.80;99.90;;;;;;5012683;28;20470;-43
2023/09/01 02:57:08;;;;;;;3.77;3.33;;;13.80;99.90;;;;;;5012511;28;20425;-43
2023/09/01 02:59:34;;;;;;;3.90;3.10;;;13.80;99.90;;;;;;5012814;28;20543;-43
2023/09/01 03:02:01;;;;;;;5.40;3.93;;;13.70;99.90;;;;;;5013252;28;20870;-44
2023/09/01 03:04:30;;;;;;;5.40;3.53;;;13.80;99.90;;;;;;5012860;28;20466;-45
2023/09/01 03:06:57;;;;;;;6.43;3.60;;;13.70;99.90;;;;;;5012296;28;20427;-44
2023/09/01 03:09:24;;;;;;;5.10;3.37;;;13.60;99.90;;;;;;5014242;28;20947;-45
2023/09/01 03:11:51;;;;;;;3.80;3.30;;;13.60;99.90;;;;;;5012707;28;20453;-44
2023/09/01 03:14:17;;;;;;;6.10;3.50;;;13.50;99.90;;;;;;5012837;28;20972;-43
2023/09/01 03:16:44;;;;;;;5.10;3.33;;;13.60;99.90;;;;;;5012566;28;20431;-44
2023/09/01 03:19:11;;;;;;;6.00;3.73;;;13.60;99.90;;;;;;5012470;28;20460;-46
2023/09/01 03:21:39;;;;;;;5.80;3.70;;;13.60;99.90;;;;;;5013858;28;20415;-45
2023/09/01 03:24:06;;;;;;;5.10;3.47;;;13.60;99.90;;;;;;5012337;28;20442;-43
2023/09/01 03:26:33;;;;;;;5.40;3.70;;;13.50;99.90;;;;;;5012756;28;20988;-43
2023/09/01 03:28:59;;;;;;;5.77;3.33;;;13.50;99.90;;;;;;5012441;28;20422;-43
2023/09/01 03:31:26;;;;;;;6.90;3.50;;;13.30;99.90;;;;;;5013788;28;20861;-44
2023/09/01 03:33:57;;;;;;;5.20;4.23;;;13.50;99.90;;;;;;5014956;28;20823;-43
2023/09/01 03:36:24;;;;;;;7.20;4.27;;;13.40;99.90;;;;;;5016461;28;20537;-44
2023/09/01 03:38:55;;;;;;;4.40;3.63;;;13.40;99.90;;;;;;5016925;28;20425;-44
2023/09/01 03:41:22;;;;;;;5.83;4.23;;;13.40;99.90;;;;;;5015298;28;20451;-44
2023/09/01 03:43:48;;;;;;;7.20;3.80;;;13.40;99.90;;;;;;5014430;28;21037;-46
2023/09/01 03:46:15;;;;;;;7.37;4.63;;;13.40;99.90;;;;;;5016868;28;20805;-45
2023/09/01 03:48:42;;;;;;;5.37;4.50;;;13.40;99.90;;;;;;5013938;28;20451;-44
2023/09/01 03:51:10;;;;;;;5.27;4.67;;;13.40;99.90;;;;;;5013601;28;20410;-44
2023/09/01 03:53:38;;;;;;;6.33;4.10;;;13.10;99.90;;;;;;5012483;28;20815;-44
2023/09/01 03:56:09;;;;;;;5.83;3.97;;;13.30;99.90;;;;;;5018093;28;20509;-44
2023/09/01 03:58:36;;;;;;;5.27;3.90;;;13.40;99.90;;;;;;5019470;28;20437;-44
2023/09/01 04:01:05;;;;;;;14.30;13.00;;;13.30;99.90;;;;;;5019334;28;20447;-43
2023/09/01 04:03:32;;;;;;;10.40;4.70;;;13.30;99.90;;;;;;5017534;28;20463;-46
2023/09/01 04:05:59;;;;;;;6.40;4.63;;;13.20;99.90;;;;;;5018769;28;20413;-44
2023/09/01 04:08:25;;;;;;;8.10;4.20;;;13.20;99.90;;;;;;5017137;28;20781;-44
2023/09/01 04:10:52;;;;;;;4.50;4.10;;;13.20;99.90;;;;;;5019359;28;20507;-44
2023/09/01 04:13:20;;;;;;;5.53;4.67;;;13.20;99.90;;;;;;5015901;28;20818;-44
2023/09/01 04:15:47;;;;;;;7.40;4.50;;;13.20;99.90;;;;;;5016320;28;20428;-43
2023/09/01 04:18:13;;;;;;;6.37;4.77;;;13.10;99.90;;;;;;5016074;28;20448;-44
2023/09/01 04:20:40;;;;;;;13.70;5.93;;;13.10;99.90;;;;;;5015977;28;20458;-45
2023/09/01 04:23:06;;;;;;;5.50;4.90;;;13.10;99.90;;;;;;5016159;28;20455;-43
2023/09/01 04:25:34;;;;;;;7.13;5.20;;;13.40;99.90;;;;;;5013778;28;20629;-44
2023/09/01 04:28:01;;;;;;;7.37;5.10;;;13.00;99.90;;;;;;5011182;28;20462;-43
2023/09/01 04:30:30;;;;;;;8.47;5.20;;;13.00;99.90;;;;;;5014110;28;20451;-44
2023/09/01 04:32:57;;;;;;;6.73;5.13;;;13.10;99.90;;;;;;5017207;28;20468;-44
2023/09/01 04:35:24;;;;;;;5.53;5.00;;;12.80;99.90;;;;;;5015853;28;20499;-43
2023/09/01 04:37:50;;;;;;;8.27;5.50;;;13.00;99.90;;;;;;5016829;28;20409;-44
2023/09/01 04:40:17;;;;;;;7.50;5.97;;;13.00;99.90;;;;;;5016206;28;20442;-44
2023/09/01 04:42:43;;;;;;;7.67;5.03;;;13.00;99.90;;;;;;5016683;28;20416;-44
2023/09/01 04:45:10;;;;;;;5.60;4.80;;;13.00;99.90;;;;;;5016304;28;21034;-45
2023/09/01 04:47:39;;;;;;;5.13;4.63;;;13.00;99.90;;;;;;5014954;28;20830;-43
2023/09/01 04:50:06;;;;;;;7.07;5.17;;;13.10;99.90;;;;;;5014779;28;20414;-43
2023/09/01 04:52:33;;;;;;;7.27;5.97;;;13.10;99.90;;;;;;5012483;28;20582;-43
2023/09/01 04:55:00;;;;;;;6.33;5.20;;;13.10;99.90;;;;;;5013164;28;20544;-45
2023/09/01 04:57:28;;;;;;;5.83;5.20;;;13.30;99.90;;;;;;5015421;28;20459;-45
2023/09/01 04:59:54;;;;;;;6.87;5.70;;;13.10;99.90;;;;;;5015280;28;20512;-44
2023/09/01 05:02:21;;;;;;;8.80;6.03;;;13.10;99.90;;;;;;5016414;28;20997;-45
2023/09/01 05:04:49;;;;;;;6.20;5.57;;;13.20;99.90;;;;;;5015055;28;20527;-45
2023/09/01 05:07:16;;;;;;;6.10;5.37;;;13.20;99.90;;;;;;5015991;28;20924;-45
2023/09/01 05:09:43;;;;;;;8.17;5.93;;;13.20;99.90;;;;;;5015175;28;20814;-44
2023/09/01 05:12:10;;;;;;;8.83;5.83;;;13.20;99.90;;;;;;5015975;28;20558;-45
2023/09/01 05:14:37;;;;;;;6.10;5.43;;;13.30;99.90;;;;;;5016413;28;20489;-44
2023/09/01 05:17:04;;;;;;;7.93;5.53;;;13.30;99.90;;;;;;5014973;28;20693;-45
2023/09/01 05:19:33;;;;;;;6.47;4.60;;;13.30;99.90;;;;;;5015061;28;20424;-45
2023/09/01 05:22:02;;;;;;;10.93;8.30;;;13.30;99.90;;;;;;5015245;28;20464;-45
2023/09/01 05:24:29;;;;;;;7.00;5.43;;;13.40;99.90;;;;;;5016022;28;20561;-46
2023/09/01 05:26:55;;;;;;;9.13;5.90;;;13.40;99.90;;;;;;5016164;28;20418;-45
2023/09/01 05:29:23;;;;;;;6.17;5.47;;;13.30;99.90;;;;;;5015553;28;20448;-43
2023/09/01 05:31:49;;;;;;;5.40;4.90;;;13.50;99.90;;;;;;5016911;28;20435;-45
2023/09/01 05:34:16;;;;;;;6.90;5.80;;;13.60;99.90;;;;;;5016118;28;20960;-43
2023/09/01 05:36:43;;;;;;;9.03;5.87;;;13.70;99.90;;;;;;5014705;28;20447;-43
2023/09/01 05:39:11;;;;;;;6.87;4.70;;;13.80;99.90;;;;;;5016709;28;20411;-44
2023/09/01 05:41:37;;;;;;;6.73;5.00;;;13.90;99.90;;;;;;5016392;28;20899;-45
2023/09/01 05:44:05;;;;;;;9.83;5.30;;;14.00;99.90;;;;;;5014665;28;20459;-44
2023/09/01 05:46:32;;;;;;;10.13;5.00;;;14.10;99.90;;;;;;5015115;28;20448;-44
2023/09/01 05:48:59;;;;;;;5.23;4.73;;;14.20;99.90;;;;;;5014622;28;20487;-43
2023/09/01 05:51:25;;;;;;;5.10;4.50;;;14.30;99.90;;;;;;5014652;28;20940;-45
2023/09/01 05:53:52;;;;;;;7.27;5.13;;;14.40;99.90;;;;;;5016476;28;20490;-45
2023/09/01 05:56:20;;;;;;;7.13;5.00;;;14.50;99.90;;;;;;5017553;28;20452;-44
2023/09/01 05:58:47;;;;;;;6.63;5.80;;;14.60;99.90;;;;;;5016214;28;20476;-45
2023/09/01 06:01:14;;;;;;;6.23;5.47;;;14.60;99.90;;;;;;5016496;28;20466;-45
2023/09/01 06:03:41;;;;;;;7.97;4.83;;;14.70;99.90;;;;;;5017892;28;20429;-43
2023/09/01 06:06:09;;;;;;;6.53;4.80;;;14.80;99.90;;;;;;5014709;28;20441;-44
2023/09/01 06:08:35;;;;;;;6.20;5.30;;;14.80;99.90;;;;;;5016462;28;20450;-45
2023/09/01 06:11:03;;;;;;;6.07;4.57;;;14.90;99.90;;;;;;5016993;28;20432;-44
2023/09/01 06:13:32;;;;;;;8.03;4.83;;;14.90;99.90;;;;;;5015614;28;20468;-45
2023/09/01 06:15:58;;;;;;;4.83;4.27;;;15.00;99.90;;;;;;5017732;28;20411;-43
2023/09/01 06:18:25;;;;;;;7.37;4.60;;;15.10;99.90;;;;;;5015814;28;20437;-45
2023/09/01 06:20:52;;;;;;;12.73;5.03;;;15.10;99.90;;;;;;5015854;28;20440;-44
2023/09/01 06:23:18;;;;;;;9.67;4.57;;;15.20;99.90;;;;;;5016121;28;20430;-45
2023/09/01 06:25:45;;;;;;;6.50;4.43;;;15.20;99.90;;;;;;5016451;28;20443;-46
2023/09/01 06:28:11;;;;;;;5.33;4.23;;;15.30;99.90;;;;;;5015164;28;20514;-44
2023/09/01 06:30:41;;;;;;;8.40;5.30;;;15.40;99.90;;;;;;5016371;28;20414;-45
2023/09/01 06:33:09;;;;;;;6.00;4.87;;;15.40;99.90;;;;;;5015484;28;20469;-43
2023/09/01 06:35:36;;;;;;;11.17;5.70;;;15.70;99.90;;;;;;5015437;28;20431;-45
2023/09/01 06:38:05;;;;;;;7.63;5.03;;;15.50;99.90;;;;;;5014928;28;20458;-45
2023/09/01 06:40:32;;;;;;;11.97;5.70;;;15.50;99.90;;;;;;5015671;28;20972;-44
2023/09/01 06:42:59;;;;;;;10.50;5.80;;;15.60;99.90;;;;;;5014185;28;20429;-46
2023/09/01 06:45:25;;;;;;;5.97;5.30;;;15.70;99.90;;;;;;5014342;28;20474;-45
2023/09/01 06:47:55;;;;;;;11.47;5.30;;;15.80;99.90;;;;;;5014250;28;20429;-45
2023/09/01 06:50:22;;;;;;;9.33;5.00;;;15.80;99.90;;;;;;5015198;28;20865;-44
2023/09/01 06:52:50;;;;;;;12.33;6.07;;;15.80;99.90;;;;;;5015219;28;20468;-44
2023/09/01 06:55:17;;;;;;;8.23;5.83;;;15.80;99.90;;;;;;5013942;28;20464;-46
2023/09/01 06:57:44;;;;;;;8.00;5.10;;;15.70;99.90;;;;;;5014874;28;20880;-46
2023/09/01 07:00:12;;;;;;;7.43;5.17;;;16.10;99.90;;;;;;5015412;28;20441;-46
2023/09/01 07:02:39;;;;;;;8.50;5.30;;;16.00;99.90;;;;;;5015064;28;20458;-44
2023/09/01 07:05:07;;;;;;;12.00;5.97;;;16.10;99.90;;;;;;5015488;28;20471;-46
2023/09/01 07:07:34;;;;;;;8.70;5.20;;;16.10;99.90;;;;;;5014068;28;20498;-45
2023/09/01 07:10:01;;;;;;;6.10;4.77;;;16.20;99.90;;;;;;5014856;28;20504;-45
2023/09/01 07:12:27;;;;;;;4.60;4.20;;;16.00;99.90;;;;;;5015034;28;20439;-44
2023/09/01 07:14:54;;;;;;;4.93;4.37;;;16.20;99.90;;;;;;5014421;28;20466;-45
2023/09/01 07:17:21;;;;;;;8.67;4.73;;;16.40;99.90;;;;;;5015283;28;20465;-42
2023/09/01 07:19:48;;;;;;;9.87;5.20;;;16.30;99.90;;;;;;5013991;28;20409;-44
2023/09/01 07:22:16;;;;;;;8.83;4.70;;;16.10;99.90;;;;;;5013832;28;20460;-44
2023/09/01 07:24:43;;;;;;;7.73;4.90;;;16.40;99.90;;;;;;5013683;28;20449;-44
2023/09/01 07:27:09;;;;;;;6.40;4.40;;;16.80;99.90;;;;;;5013772;28;20465;-45
2023/09/01 07:29:36;;;;;;;7.97;5.20;;;16.90;99.90;;;;;;5013787;28;20960;-44
2023/09/01 07:32:03;;;;;;;5.33;4.70;;;16.60;99.90;;;;;;5013313;28;20443;-44
2023/09/01 07:34:30;;;;;;;8.90;4.57;;;16.70;99.90;;;;;;5013274;28;20501;-44
2023/09/01 07:36:57;;;;;;;5.57;4.00;;;16.70;99.90;;;;;;5013284;28;20457;-45
2023/09/01 07:39:25;;;;;;;7.50;5.37;;;17.00;99.90;;;;;;5013651;28;20529;-45
2023/09/01 07:41:51;;;;;;;5.20;4.07;;;16.50;99.90;;;;;;5013992;28;20430;-44
2023/09/01 07:44:20;;;;;;;7.27;5.10;;;17.00;99.90;;;;;;5014357;28;20521;-41
2023/09/01 07:46:46;;;;;;;20.30;4.80;;;16.90;99.90;;;;;;5014640;28;20441;-43
2023/09/01 07:49:13;;;;;;;7.67;4.57;;;17.10;99.90;;;;;;5015671;28;20864;-39
2023/09/01 07:51:39;;;;;;;6.53;5.17;;;17.00;99.90;;;;;;5015268;28;20422;-42
2023/09/01 07:54:06;;;;;;;7.87;4.63;;;17.00;99.90;;;;;;5013799;28;20466;-40
2023/09/01 07:56:34;;;;;;;11.33;5.37;;;17.10;99.90;;;;;;5016897;28;20435;-41
2023/09/01 07:59:02;;;;;;;6.90;4.03;;;17.10;99.90;;;;;;5014412;28;20426;-41
2023/09/01 08:01:29;;;;;;;8.40;4.37;;;17.50;99.90;;;;;;5014649;28;20536;-41
2023/09/01 08:03:59;;;;;;;9.43;5.70;;;17.50;99.90;;;;;;5015078;28;20461;-39
2023/09/01 08:06:26;;;;;;;6.23;4.30;;;17.50;99.90;;;;;;5013959;28;20780;-40
2023/09/01 08:08:53;;;;;;;7.60;4.30;;;17.50;99.90;;;;;;5015465;28;20413;-42
2023/09/01 08:11:19;;;;;;;8.23;4.23;;;17.50;99.90;;;;;;5015723;28;20421;-40
2023/09/01 08:13:47;;;;;;;5.63;4.07;;;17.40;99.90;;;;;;5016316;28;20492;-43
2023/09/01 08:16:15;;;;;;;9.73;4.30;;;17.60;99.90;;;;;;5017565;28;20437;-44
2023/09/01 08:18:42;;;;;;;4.67;4.13;;;17.80;99.90;;;;;;5014510;28;20428;-44
2023/09/01 08:21:09;;;;;;;5.57;4.13;;;17.70;99.90;;;;;;5015655;28;20413;-42
2023/09/01 08:23:35;;;;;;;7.60;3.77;;;17.80;99.90;;;;;;5015521;28;20554;-41
2023/09/01 08:26:05;;;;;;;12.80;4.20;;;17.60;99.90;;;;;;5013926;28;20436;-41
2023/09/01 08:28:32;;;;;;;9.80;4.03;;;17.90;99.90;;;;;;5014785;28;20425;-42
2023/09/01 08:31:02;;;;;;;7.53;3.53;;;17.90;99.90;;;;;;5018654;28;20405;-44
2023/09/01 08:33:29;;;;;;;7.87;3.80;;;17.80;99.90;;;;;;5019504;28;20470;-41
2023/09/01 08:35:55;;;;;;;4.93;3.57;;;18.00;99.90;;;;;;5019283;28;20411;-41
2023/09/01 08:38:22;;;;;;;9.63;4.37;;;18.00;99.90;;;;;;5018003;28;20440;-41
2023/09/01 08:40:49;;;;;;;6.27;3.70;;;18.10;99.90;;;;;;5018592;28;20446;-43
2023/09/01 08:43:16;;;;;;;4.03;3.20;;;17.90;99.90;;;;;;5018788;28;20448;-41
2023/09/01 08:45:43;;;;;;;7.93;4.07;;;18.20;99.90;;;;;;5017712;28;20574;-43
2023/09/01 08:48:12;;;;;;;8.90;3.47;;;18.20;99.90;;;;;;5018429;28;20497;-40
2023/09/01 08:50:39;;;;;;;9.93;4.00;;;18.00;99.90;;;;;;5018098;28;20461;-42
2023/09/01 08:53:06;;;;;;;8.87;3.50;;;18.30;99.90;;;;;;5018018;28;20475;-41
2023/09/01 08:55:33;;;;;;;8.83;3.83;;;18.30;99.90;;;;;;5019304;28;20847;-41
2023/09/01 08:57:59;;;;;;;7.47;4.27;;;18.50;99.90;;;;;;5019214;28;20439;-43
2023/09/01 09:00:26;;;;;;;4.30;2.53;;;18.50;99.90;;;;;;5017972;28;20413;-41
2023/09/01 09:02:53;;;;;;;5.50;2.90;;;18.50;99.90;;;;;;5017729;28;20506;-42
2023/09/01 09:05:22;;;;;;;7.73;3.03;;;18.50;99.90;;;;;;5018224;28;20805;-44
2023/09/01 09:07:58;;;;;;;9.03;3.03;;;18.60;99.90;;;;;;5018162;28;20461;-42
2023/09/01 09:10:33;;;;;;;7.67;3.30;;;18.60;99.90;;;;;;5017584;28;20796;-42
2023/09/01 09:13:00;;;;;;;5.37;2.30;;;18.60;99.90;;;;;;5017689;28;20443;-42
2023/09/01 09:15:27;;;;;;;4.37;2.40;;;18.60;99.90;;;;;;5016767;28;20452;-43
2023/09/01 09:17:54;;;;;;;3.63;2.20;;;18.60;99.50;;;;;;5018239;28;20451;-46
2023/09/01 09:20:22;;;;;;;9.53;2.10;;;18.60;99.20;;;;;;5036126;28;20463;-43
2023/09/01 09:22:54;;;;;;;3.93;2.10;;;18.70;99.20;;;;;;5041310;28;20435;-43
2023/09/01 09:25:28;;;;;;;4.53;2.13;;;18.70;98.60;;;;;;5044147;28;20440;-42
2023/09/01 09:27:56;;;;;;;6.37;2.40;;;18.80;98.60;;;;;;5041326;28;20468;-41
2023/09/01 09:30:25;;;;;;;4.33;2.00;;;18.90;98.50;;;;;;5039402;28;20530;-41
2023/09/01 09:33:02;;;;;;;6.07;2.20;;;19.00;98.50;;;;;;5048480;28;20482;-41
2023/09/01 09:35:31;;;;;;;8.20;3.03;;;19.10;98.40;;;;;;5037165;28;20524;-40
2023/09/01 09:37:59;;;;;;;3.93;2.20;;;19.10;98.20;;;;;;5052317;28;20411;-41
2023/09/01 09:40:25;;;;;;;3.03;1.80;;;19.10;97.90;;;;;;5045062;28;20457;-43
2023/09/01 09:42:52;;;;;;;4.13;2.00;;;19.00;97.90;;;;;;5043523;28;20537;-44
2023/09/01 09:45:28;;;;;;;5.87;2.30;;;19.10;98.00;;;;;;5052170;28;20933;-43
2023/09/01 09:47:56;;;;;;;5.83;1.93;;;19.20;98.00;;;;;;5024149;28;20431;-44
2023/09/01 09:50:24;;;;;;;5.40;2.70;;;19.30;98.00;;;;;;5047950;28;20446;-42
2023/09/01 09:52:57;;;;;;;8.17;3.10;;;19.30;97.90;;;;;;5036856;28;20880;-42
2023/09/01 09:55:26;;;;;;;3.40;2.33;;;19.10;97.50;;;;;;5043804;28;20537;-40
2023/09/01 09:57:58;;;;;;;5.57;2.87;;;19.40;97.80;;;;;;5028886;28;20521;-40
2023/09/01 10:00:28;;;;;;;5.90;2.80;;;19.40;97.70;;;;;;5033972;28;20470;-44
2023/09/01 10:03:00;;;;;;;7.00;2.60;;;19.50;97.50;;;;;;5044156;28;20448;-44
2023/09/01 10:05:31;;;;;;;7.13;3.17;;;19.50;97.50;;;;;;5039693;28;20518;-44
2023/09/01 10:07:59;;;;;;;3.60;2.87;;;19.50;97.40;;;;;;5041224;28;20434;-42
2023/09/01 10:10:26;;;;;;;6.10;3.30;;;19.50;97.40;;;;;;5038672;28;21024;-42
2023/09/01 10:12:53;;;;;;;3.00;2.50;;;19.60;97.30;;;;;;5048001;28;20455;-42
2023/09/01 10:15:21;;;;;;;7.53;2.90;;;19.60;97.30;;;;;;5039694;28;20464;-41
2023/09/01 10:17:49;;;;;;;3.97;2.70;;;19.80;97.10;;;;;;5037515;28;20567;-41
2023/09/01 10:20:16;;;;;;;4.43;2.77;;;19.80;96.80;;;;;;5027986;28;20438;-40
2023/09/01 10:22:44;;;;;;;6.40;3.20;;;19.80;96.60;;;;;;5046243;28;20952;-40
2023/09/01 10:25:15;;;;;;;5.67;2.30;;;19.80;96.60;;;;;;5040272;28;20514;-45
2023/09/01 10:28:04;;;;;;;3.20;2.70;;;19.90;96.70;;;;;;5041029;28;20454;-41
2023/09/01 10:30:32;;;;;;;5.33;2.73;;;20.00;96.60;;;;;;5052718;28;20444;-45
2023/09/01 10:33:04;;;;;;;11.57;3.00;;;20.10;96.40;;;;;;5051496;28;20438;-40
2023/09/01 10:35:42;;;;;;;5.90;2.10;;;20.20;96.20;;;;;;5041697;28;20485;-42
2023/09/01 10:38:11;;;;;;;4.10;2.50;;;20.20;95.60;;;;;;5050726;28;20442;-44
2023/09/01 10:40:43;;;;;;;7.20;2.93;;;20.30;95.50;;;;;;5045487;28;20441;-45
2023/09/01 10:43:11;;;;;;;5.33;3.40;;;20.30;94.70;;;;;;5041629;28;20421;-42
2023/09/01 10:45:38;;;;;;;7.00;3.03;;;20.20;93.90;;;;;;5036083;28;20524;-41
2023/09/01 10:48:11;;;;;;;4.40;2.47;;;20.40;93.90;;;;;;5053553;28;20441;-43
2023/09/01 10:50:40;;;;;;;4.90;2.23;;;20.30;93.90;;;;;;5041757;28;20526;-42
2023/09/01 10:53:29;;;;;;;4.90;2.60;;;20.30;94.00;;;;;;5045425;28;20444;-42
2023/09/01 10:56:07;;;;;;;5.03;2.60;;;20.20;94.20;;;;;;5028531;28;20934;-44
2023/09/01 10:58:48;;;;;;;4.20;2.40;;;20.20;94.30;;;;;;5046790;28;20435;-45
2023/09/01 11:01:25;;;;;;;3.50;2.30;;;20.20;94.00;;;;;;5041488;28;20455;-42
2023/09/01 11:03:52;;;;;;;7.10;2.77;;;20.30;94.30;;;;;;5023778;28;20508;-40
2023/09/01 11:06:20;;;;;;;5.50;2.50;;;20.30;94.40;;;;;;5052184;28;20483;-44
2023/09/01 11:08:57;;;;;;;7.27;2.90;;;20.40;94.40;;;;;;5045541;28;20866;-44
2023/09/01 11:11:26;;;;;;;6.70;2.85;;;20.70;94.50;;;;;;5051430;28;20435;-41
2023/09/01 11:14:01;;;;;;;5.22;2.63;;;20.80;93.80;;;;;;5037700;28;20450;-43
2023/09/01 11:16:27;;;;;;;5.93;2.40;;;20.90;93.20;;;;;;5047095;28;20219;-39
2023/09/01 11:19:01;;;;;;;4.10;2.30;;;20.70;93.30;;;;;;5048245;28;20801;-41
2023/09/01 11:21:28;;;;;;;9.17;2.77;;;20.90;93.90;;;;;;5040040;28;20439;-42
2023/09/01 11:23:59;;;;;;;7.57;3.03;;;21.00;93.60;;;;;;5053078;28;20881;-41
2023/09/01 11:26:27;;;;;;;4.83;3.20;;;21.00;93.20;;;;;;5043936;28;20793;-42
2023/09/01 11:28:55;;;;;;;4.33;2.60;;;21.10;93.00;;;;;;5048114;28;20423;-46
2023/09/01 11:31:22;;;;;;;4.40;2.60;;;21.10;92.90;;;;;;5037055;28;20449;-43
2023/09/01 11:33:52;;;;;;;5.90;2.70;;;21.10;92.50;;;;;;5053678;28;20471;-41
2023/09/01 11:36:19;;;;;;;4.03;2.90;;;21.10;92.40;;;;;;5044470;28;20926;-41
2023/09/01 11:38:46;;;;;;;8.67;2.73;;;21.10;92.40;;;;;;5045030;28;20809;-41
2023/09/01 11:41:18;;;;;;;4.60;3.20;;;21.20;92.40;;;;;;5050526;28;20835;-40
2023/09/01 11:43:46;;;;;;;2.87;2.27;;;21.10;91.90;;;;;;5038597;28;20491;-41
2023/09/01 11:46:13;;;;;;;4.93;3.17;;;21.20;92.20;;;;;;5049848;28;20443;-40
2023/09/01 11:48:41;;;;;;;8.43;2.73;;;21.30;92.00;;;;;;5044740;28;20461;-40
2023/09/01 11:51:08;;;;;;;5.67;3.00;;;21.40;92.00;;;;;;5042879;28;20498;-42
2023/09/01 11:53:36;;;;;;;4.13;2.70;;;21.40;91.70;;;;;;5052857;28;20462;-40
2023/09/01 11:56:19;;;;;;;8.60;3.60;;;21.50;91.70;;;;;;5043879;28;20501;-41
2023/09/01 11:58:48;;;;;;;3.40;2.50;;;21.70;91.50;;;;;;5036665;28;20476;-40
2023/09/01 12:01:17;;;;;;;4.20;3.20;;;21.70;91.40;;;;;;5033242;28;20443;-40
2023/09/01 12:03:47;;;;;;;5.53;2.67;;;21.90;91.50;;;;;;5049482;28;20501;-45
2023/09/01 12:06:18;;;;;;;4.73;3.27;;;22.10;91.50;;;;;;5040200;28;20821;-41
2023/09/01 12:08:45;;;;;;;7.47;3.30;;;22.10;91.40;;;;;;5041571;28;20445;-41
2023/09/01 12:11:13;;;;;;;5.53;3.10;;;22.20;91.20;;;;;;5040619;28;20413;-43
2023/09/01 12:13:40;;;;;;;6.07;2.83;;;22.30;91.10;;;;;;5035363;28;20487;-41
2023/09/01 12:16:08;;;;;;;7.60;4.80;;;22.40;91.10;;;;;;5042909;28;20573;-42
2023/09/01 12:18:38;;;;;;;4.30;2.47;;;22.50;90.70;;;;;;5043615;28;20527;-41
2023/09/01 12:21:06;;;;;;;3.60;2.57;;;22.50;90.20;;;;;;5039716;28;20967;-42
2023/09/01 12:23:34;;;;;;;10.50;3.10;;;22.40;89.80;;;;;;5050512;28;20474;-42
2023/09/01 12:26:02;;;;;;;6.50;3.57;;;22.50;90.20;;;;;;5038807;28;20433;-41
2023/09/01 12:28:30;;;;;;;4.07;2.80;;;22.60;90.20;;;;;;5043133;28;20458;-42
2023/09/01 12:30:57;;;;;;;6.60;4.20;;;22.80;89.80;;;;;;5041161;28;20444;-44
2023/09/01 12:33:25;;;;;;;5.47;2.33;;;22.80;88.30;;;;;;5050328;28;20490;-40
2023/09/01 12:35:53;;;;;;;6.17;2.80;;;23.00;87.80;;;;;;5021889;28;21013;-43
2023/09/01 12:38:20;;;;;;;6.60;3.27;;;23.10;87.30;;;;;;5046411;28;20956;-42
2023/09/01 12:40:47;;;;;;;7.70;3.10;;;23.10;86.60;;;;;;5046531;28;20449;-44
2023/09/01 12:43:13;;;;;;;4.90;2.47;;;23.10;86.40;;;;;;5040202;28;20462;-43
2023/09/01 12:45:40;;;;;;;3.50;2.30;;;23.00;85.80;;;;;;5053179;28;20447;-41
2023/09/01 12:48:07;;;;;;;6.40;2.20;;;23.00;85.60;;;;;;5042996;28;20535;-46
2023/09/01 12:50:35;;;;;;;4.63;2.47;;;22.80;85.10;;;;;;5048134;28;20460;-42